sensor_id;sensor_type;location;lat;lon;timestamp;temperature;humidity
69009;SHT31;56065;52.472;13.380;2023-03-23T00:00:45;13.40;71.42
69009;SHT31;56065;52.472;13.380;2023-03-23T00:03:10;13.35;71.25
69009;SHT31;56065;52.472;13.380;2023-03-23T00:05:35;13.37;71.18
69009;SHT31;56065;52.472;13.380;2023-03-23T00:08:02;13.27;72.00
69009;SHT31;56065;52.472;13.380;2023-03-23T00:10:28;13.28;71.50
69009;SHT31;56065;52.472;13.380;2023-03-23T00:12:58;13.23;71.76
69009;SHT31;56065;52.472;13.380;2023-03-23T00:15:27;13.03;72.52
69009;SHT31;56065;52.472;13.380;2023-03-23T00:17:55;12.92;73.01
69009;SHT31;56065;52.472;13.380;2023-03-23T00:20:28;13.00;72.55
69009;SHT31;56065;52.472;13.380;2023-03-23T00:22:55;13.00;72.54
69009;SHT31;56065;52.472;13.380;2023-03-23T00:25:25;13.00;72.52
69009;SHT31;56065;52.472;13.380;2023-03-23T00:27:50;13.07;72.19
69009;SHT31;56065;52.472;13.380;2023-03-23T00:30:15;13.06;72.09
69009;SHT31;56065;52.472;13.380;2023-03-23T00:32:41;13.00;72.31
69009;SHT31;56065;52.472;13.380;2023-03-23T00:35:07;12.99;72.52
69009;SHT31;56065;52.472;13.380;2023-03-23T00:37:33;12.80;73.10
69009;SHT31;56065;52.472;13.380;2023-03-23T00:40:01;12.92;72.71
69009;SHT31;56065;52.472;13.380;2023-03-23T00:42:26;12.87;72.58
69009;SHT31;56065;52.472;13.380;2023-03-23T00:44:53;12.84;72.79
69009;SHT31;56065;52.472;13.380;2023-03-23T00:47:25;12.92;72.52
69009;SHT31;56065;52.472;13.380;2023-03-23T00:49:50;12.86;72.45
69009;SHT31;56065;52.472;13.380;2023-03-23T00:52:17;12.73;73.03
69009;SHT31;56065;52.472;13.380;2023-03-23T00:54:42;12.77;72.65
69009;SHT31;56065;52.472;13.380;2023-03-23T00:57:08;12.80;72.67
69009;SHT31;56065;52.472;13.380;2023-03-23T00:59:35;12.82;72.15
69009;SHT31;56065;52.472;13.380;2023-03-23T01:02:00;12.72;72.78
69009;SHT31;56065;52.472;13.380;2023-03-23T01:04:26;12.69;73.01
69009;SHT31;56065;52.472;13.380;2023-03-23T01:06:53;12.56;73.42
69009;SHT31;56065;52.472;13.380;2023-03-23T01:09:19;12.62;73.00
69009;SHT31;56065;52.472;13.380;2023-03-23T01:11:47;12.55;73.14
69009;SHT31;56065;52.472;13.380;2023-03-23T01:14:15;12.50;73.34
69009;SHT31;56065;52.472;13.380;2023-03-23T01:16:41;12.50;73.32
69009;SHT31;56065;52.472;13.380;2023-03-23T01:19:06;12.49;73.37
69009;SHT31;56065;52.472;13.380;2023-03-23T01:21:31;12.53;73.13
69009;SHT31;56065;52.472;13.380;2023-03-23T01:23:57;12.36;73.88
69009;SHT31;56065;52.472;13.380;2023-03-23T01:26:24;12.35;73.82
69009;SHT31;56065;52.472;13.380;2023-03-23T01:28:50;12.35;73.84
69009;SHT31;56065;52.472;13.380;2023-03-23T01:31:21;12.41;73.77
69009;SHT31;56065;52.472;13.380;2023-03-23T01:33:47;12.38;73.62
69009;SHT31;56065;52.472;13.380;2023-03-23T01:36:15;12.41;73.48
69009;SHT31;56065;52.472;13.380;2023-03-23T01:38:43;12.38;73.38
69009;SHT31;56065;52.472;13.380;2023-03-23T01:41:10;12.38;73.82
69009;SHT31;56065;52.472;13.380;2023-03-23T01:43:35;12.35;73.67
69009;SHT31;56065;52.472;13.380;2023-03-23T01:46:01;12.31;74.16
69009;SHT31;56065;52.472;13.380;2023-03-23T01:48:32;12.26;74.19
69009;SHT31;56065;52.472;13.380;2023-03-23T01:51:10;12.24;74.19
69009;SHT31;56065;52.472;13.380;2023-03-23T01:53:43;12.36;73.66
69009;SHT31;56065;52.472;13.380;2023-03-23T01:56:10;12.41;73.63
69009;SHT31;56065;52.472;13.380;2023-03-23T01:58:40;12.43;73.50
69009;SHT31;56065;52.472;13.380;2023-03-23T02:01:09;12.42;73.86
69009;SHT31;56065;52.472;13.380;2023-03-23T02:03:37;12.39;73.78
69009;SHT31;56065;52.472;13.380;2023-03-23T02:06:05;12.49;73.44
69009;SHT31;56065;52.472;13.380;2023-03-23T02:08:32;12.45;73.46
69009;SHT31;56065;52.472;13.380;2023-03-23T02:10:58;12.48;73.37
69009;SHT31;56065;52.472;13.380;2023-03-23T02:13:24;12.39;73.58
69009;SHT31;56065;52.472;13.380;2023-03-23T02:18:31;12.42;73.35
69009;SHT31;56065;52.472;13.380;2023-03-23T02:21:36;12.39;73.48
69009;SHT31;56065;52.472;13.380;2023-03-23T02:27:08;12.52;73.22
69009;SHT31;56065;52.472;13.380;2023-03-23T02:35:20;12.70;72.62
69009;SHT31;56065;52.472;13.380;2023-03-23T02:38:14;12.77;72.55
69009;SHT31;56065;52.472;13.380;2023-03-23T02:40:45;12.84;72.28
69009;SHT31;56065;52.472;13.380;2023-03-23T02:43:18;12.86;72.16
69009;SHT31;56065;52.472;13.380;2023-03-23T02:45:45;12.86;72.30
69009;SHT31;56065;52.472;13.380;2023-03-23T02:48:14;12.96;72.23
69009;SHT31;56065;52.472;13.380;2023-03-23T02:50:43;12.86;72.99
69009;SHT31;56065;52.472;13.380;2023-03-23T02:53:10;12.82;73.35
69009;SHT31;56065;52.472;13.380;2023-03-23T02:55:39;12.86;73.57
69009;SHT31;56065;52.472;13.380;2023-03-23T02:58:10;12.73;74.14
69009;SHT31;56065;52.472;13.380;2023-03-23T03:00:36;12.75;74.30
69009;SHT31;56065;52.472;13.380;2023-03-23T03:03:04;12.76;74.21
69009;SHT31;56065;52.472;13.380;2023-03-23T03:05:38;12.83;73.83
69009;SHT31;56065;52.472;13.380;2023-03-23T03:10:55;12.94;73.85
69009;SHT31;56065;52.472;13.380;2023-03-23T03:19:00;13.00;73.96
69009;SHT31;56065;52.472;13.380;2023-03-23T03:21:28;13.13;73.49
69009;SHT31;56065;52.472;13.380;2023-03-23T03:24:00;13.18;73.57
69009;SHT31;56065;52.472;13.380;2023-03-23T03:26:27;13.08;73.72
69009;SHT31;56065;52.472;13.380;2023-03-23T03:28:54;13.10;73.60
69009;SHT31;56065;52.472;13.380;2023-03-23T03:31:33;13.17;73.29
69009;SHT31;56065;52.472;13.380;2023-03-23T03:34:01;13.10;73.44
69009;SHT31;56065;52.472;13.380;2023-03-23T03:36:33;13.20;73.09
69009;SHT31;56065;52.472;13.380;2023-03-23T03:39:04;13.15;73.03
69009;SHT31;56065;52.472;13.380;2023-03-23T03:41:31;13.10;72.88
69009;SHT31;56065;52.472;13.380;2023-03-23T03:43:57;13.10;73.51
69009;SHT31;56065;52.472;13.380;2023-03-23T03:46:22;13.08;73.61
69009;SHT31;56065;52.472;13.380;2023-03-23T03:48:52;13.17;74.35
69009;SHT31;56065;52.472;13.380;2023-03-23T03:51:17;13.15;73.50
69009;SHT31;56065;52.472;13.380;2023-03-23T03:53:42;13.13;73.83
69009;SHT31;56065;52.472;13.380;2023-03-23T03:56:08;13.17;74.28
69009;SHT31;56065;52.472;13.380;2023-03-23T03:58:33;13.13;74.26
69009;SHT31;56065;52.472;13.380;2023-03-23T04:01:02;13.23;74.08
69009;SHT31;56065;52.472;13.380;2023-03-23T04:03:27;13.28;74.50
69009;SHT31;56065;52.472;13.380;2023-03-23T04:05:54;13.30;73.94
69009;SHT31;56065;52.472;13.380;2023-03-23T04:08:24;13.37;74.57
69009;SHT31;56065;52.472;13.380;2023-03-23T04:10:51;13.44;73.97
69009;SHT31;56065;52.472;13.380;2023-03-23T04:13:17;13.43;74.42
69009;SHT31;56065;52.472;13.380;2023-03-23T04:15:46;13.43;73.86
69009;SHT31;56065;52.472;13.380;2023-03-23T04:18:13;13.33;73.62
69009;SHT31;56065;52.472;13.380;2023-03-23T04:20:41;13.40;73.60
69009;SHT31;56065;52.472;13.380;2023-03-23T04:23:06;13.43;73.99
69009;SHT31;56065;52.472;13.380;2023-03-23T04:25:32;13.27;73.60
69009;SHT31;56065;52.472;13.380;2023-03-23T04:27:58;13.34;73.92
69009;SHT31;56065;52.472;13.380;2023-03-23T04:30:26;13.45;73.51
69009;SHT31;56065;52.472;13.380;2023-03-23T04:32:52;13.50;73.86
69009;SHT31;56065;52.472;13.380;2023-03-23T04:35:21;13.50;73.95
69009;SHT31;56065;52.472;13.380;2023-03-23T04:37:47;13.43;74.15
69009;SHT31;56065;52.472;13.380;2023-03-23T04:40:14;13.34;74.35
69009;SHT31;56065;52.472;13.380;2023-03-23T04:42:42;13.34;73.78
69009;SHT31;56065;52.472;13.380;2023-03-23T04:45:12;13.34;73.74
69009;SHT31;56065;52.472;13.380;2023-03-23T04:47:38;13.23;74.01
69009;SHT31;56065;52.472;13.380;2023-03-23T04:50:11;13.11;74.04
69009;SHT31;56065;52.472;13.380;2023-03-23T04:52:40;13.24;74.16
69009;SHT31;56065;52.472;13.380;2023-03-23T04:55:11;13.38;74.22
69009;SHT31;56065;52.472;13.380;2023-03-23T04:57:37;13.11;74.29
69009;SHT31;56065;52.472;13.380;2023-03-23T05:00:04;13.20;74.34
69009;SHT31;56065;52.472;13.380;2023-03-23T05:02:35;13.33;74.60
69009;SHT31;56065;52.472;13.380;2023-03-23T05:05:01;13.33;74.58
69009;SHT31;56065;52.472;13.380;2023-03-23T05:07:26;13.40;74.68
69009;SHT31;56065;52.472;13.380;2023-03-23T05:09:51;13.48;74.95
69009;SHT31;56065;52.472;13.380;2023-03-23T05:12:17;13.50;75.73
69009;SHT31;56065;52.472;13.380;2023-03-23T05:14:43;13.45;75.91
69009;SHT31;56065;52.472;13.380;2023-03-23T05:17:08;13.25;76.17
69009;SHT31;56065;52.472;13.380;2023-03-23T05:19:34;12.89;76.46
69009;SHT31;56065;52.472;13.380;2023-03-23T05:22:00;12.84;76.97
69009;SHT31;56065;52.472;13.380;2023-03-23T05:24:32;12.72;77.71
69009;SHT31;56065;52.472;13.380;2023-03-23T05:26:59;12.86;77.28
69009;SHT31;56065;52.472;13.380;2023-03-23T05:29:24;12.86;77.52
69009;SHT31;56065;52.472;13.380;2023-03-23T05:31:51;12.60;77.42
69009;SHT31;56065;52.472;13.380;2023-03-23T05:34:18;12.52;78.35
69009;SHT31;56065;52.472;13.380;2023-03-23T05:36:44;12.49;79.13
69009;SHT31;56065;52.472;13.380;2023-03-23T05:39:11;12.50;79.04
69009;SHT31;56065;52.472;13.380;2023-03-23T05:41:36;12.39;80.37
69009;SHT31;56065;52.472;13.380;2023-03-23T05:44:02;12.35;80.81
69009;SHT31;56065;52.472;13.380;2023-03-23T05:46:28;12.46;81.27
69009;SHT31;56065;52.472;13.380;2023-03-23T05:48:54;12.25;82.36
69009;SHT31;56065;52.472;13.380;2023-03-23T05:51:19;12.18;82.90
69009;SHT31;56065;52.472;13.380;2023-03-23T05:53:45;12.05;83.38
69009;SHT31;56065;52.472;13.380;2023-03-23T05:56:11;11.94;84.74
69009;SHT31;56065;52.472;13.380;2023-03-23T05:58:36;11.74;86.28
69009;SHT31;56065;52.472;13.380;2023-03-23T06:01:06;11.69;87.71
69009;SHT31;56065;52.472;13.380;2023-03-23T06:03:31;11.56;88.03
69009;SHT31;56065;52.472;13.380;2023-03-23T06:05:57;11.52;88.32
69009;SHT31;56065;52.472;13.380;2023-03-23T06:08:23;11.47;89.00
69009;SHT31;56065;52.472;13.380;2023-03-23T06:10:49;11.46;89.36
69009;SHT31;56065;52.472;13.380;2023-03-23T06:13:14;11.49;89.43
69009;SHT31;56065;52.472;13.380;2023-03-23T06:15:40;11.39;90.11
69009;SHT31;56065;52.472;13.380;2023-03-23T06:18:05;11.30;90.58
69009;SHT31;56065;52.472;13.380;2023-03-23T06:20:31;11.29;91.28
69009;SHT31;56065;52.472;13.380;2023-03-23T06:22:57;11.20;91.25
69009;SHT31;56065;52.472;13.380;2023-03-23T06:25:23;11.30;90.63
69009;SHT31;56065;52.472;13.380;2023-03-23T06:27:49;11.33;90.64
69009;SHT31;56065;52.472;13.380;2023-03-23T06:30:15;11.29;90.61
69009;SHT31;56065;52.472;13.380;2023-03-23T06:32:41;11.29;91.04
69009;SHT31;56065;52.472;13.380;2023-03-23T06:35:09;11.23;91.47
69009;SHT31;56065;52.472;13.380;2023-03-23T06:37:36;11.26;91.29
69009;SHT31;56065;52.472;13.380;2023-03-23T06:40:02;11.20;91.28
69009;SHT31;56065;52.472;13.380;2023-03-23T06:42:31;11.26;91.33
69009;SHT31;56065;52.472;13.380;2023-03-23T06:44:57;11.26;91.77
69009;SHT31;56065;52.472;13.380;2023-03-23T06:47:24;11.23;91.34
69009;SHT31;56065;52.472;13.380;2023-03-23T06:49:49;11.30;91.40
69009;SHT31;56065;52.472;13.380;2023-03-23T06:52:15;11.32;91.25
69009;SHT31;56065;52.472;13.380;2023-03-23T06:54:40;11.33;91.01
69009;SHT31;56065;52.472;13.380;2023-03-23T06:57:05;11.53;90.86
69009;SHT31;56065;52.472;13.380;2023-03-23T06:59:31;11.64;90.23
69009;SHT31;56065;52.472;13.380;2023-03-23T07:01:56;11.75;89.99
69009;SHT31;56065;52.472;13.380;2023-03-23T07:04:22;11.77;90.03
69009;SHT31;56065;52.472;13.380;2023-03-23T07:06:48;11.78;90.37
69009;SHT31;56065;52.472;13.380;2023-03-23T07:09:14;11.85;89.51
69009;SHT31;56065;52.472;13.380;2023-03-23T07:11:39;11.81;90.02
69009;SHT31;56065;52.472;13.380;2023-03-23T07:14:04;11.70;90.09
69009;SHT31;56065;52.472;13.380;2023-03-23T07:16:30;11.71;90.31
69009;SHT31;56065;52.472;13.380;2023-03-23T07:18:56;11.75;90.25
69009;SHT31;56065;52.472;13.380;2023-03-23T07:21:21;11.74;90.72
69009;SHT31;56065;52.472;13.380;2023-03-23T07:23:47;11.75;90.69
69009;SHT31;56065;52.472;13.380;2023-03-23T07:26:12;11.78;90.62
69009;SHT31;56065;52.472;13.380;2023-03-23T07:28:38;11.85;90.45
69009;SHT31;56065;52.472;13.380;2023-03-23T07:31:05;11.87;90.52
69009;SHT31;56065;52.472;13.380;2023-03-23T07:33:32;11.71;91.06
69009;SHT31;56065;52.472;13.380;2023-03-23T07:35:59;11.64;91.59
69009;SHT31;56065;52.472;13.380;2023-03-23T07:38:25;11.70;91.07
69009;SHT31;56065;52.472;13.380;2023-03-23T07:40:52;11.80;91.31
69009;SHT31;56065;52.472;13.380;2023-03-23T07:43:18;12.01;90.21
69009;SHT31;56065;52.472;13.380;2023-03-23T07:45:44;11.88;90.99
69009;SHT31;56065;52.472;13.380;2023-03-23T07:48:09;11.95;91.00
69009;SHT31;56065;52.472;13.380;2023-03-23T07:50:34;12.24;90.20
69009;SHT31;56065;52.472;13.380;2023-03-23T07:53:02;12.22;90.27
69009;SHT31;56065;52.472;13.380;2023-03-23T07:55:27;12.21;90.18
69009;SHT31;56065;52.472;13.380;2023-03-23T07:57:54;12.39;89.24
69009;SHT31;56065;52.472;13.380;2023-03-23T08:00:21;12.43;89.24
69009;SHT31;56065;52.472;13.380;2023-03-23T08:02:51;12.32;89.36
69009;SHT31;56065;52.472;13.380;2023-03-23T08:05:16;12.48;88.97
69009;SHT31;56065;52.472;13.380;2023-03-23T08:07:43;12.53;88.46
69009;SHT31;56065;52.472;13.380;2023-03-23T08:10:11;12.36;89.30
69009;SHT31;56065;52.472;13.380;2023-03-23T08:12:38;12.52;88.28
69009;SHT31;56065;52.472;13.380;2023-03-23T08:15:05;12.52;88.49
69009;SHT31;56065;52.472;13.380;2023-03-23T08:17:31;12.45;88.78
69009;SHT31;56065;52.472;13.380;2023-03-23T08:19:57;12.57;88.80
69009;SHT31;56065;52.472;13.380;2023-03-23T08:22:23;12.73;87.82
69009;SHT31;56065;52.472;13.380;2023-03-23T08:24:48;12.60;88.00
69009;SHT31;56065;52.472;13.380;2023-03-23T08:27:13;12.67;87.99
69009;SHT31;56065;52.472;13.380;2023-03-23T08:29:39;12.42;87.99
69009;SHT31;56065;52.472;13.380;2023-03-23T08:32:05;12.34;88.29
69009;SHT31;56065;52.472;13.380;2023-03-23T08:34:31;12.32;88.01
69009;SHT31;56065;52.472;13.380;2023-03-23T08:36:56;12.46;88.01
69009;SHT31;56065;52.472;13.380;2023-03-23T08:39:22;12.41;88.13
69009;SHT31;56065;52.472;13.380;2023-03-23T08:41:49;12.42;87.66
69009;SHT31;56065;52.472;13.380;2023-03-23T08:44:15;12.45;87.74
69009;SHT31;56065;52.472;13.380;2023-03-23T08:46:41;12.56;87.95
69009;SHT31;56065;52.472;13.380;2023-03-23T08:49:06;12.76;87.19
69009;SHT31;56065;52.472;13.380;2023-03-23T08:51:32;12.90;87.05
69009;SHT31;56065;52.472;13.380;2023-03-23T08:53:58;12.89;86.73
69009;SHT31;56065;52.472;13.380;2023-03-23T08:56:24;13.15;86.13
69009;SHT31;56065;52.472;13.380;2023-03-23T08:58:49;13.04;86.37
69009;SHT31;56065;52.472;13.380;2023-03-23T09:01:15;12.97;86.15
69009;SHT31;56065;52.472;13.380;2023-03-23T09:03:40;13.27;85.86
69009;SHT31;56065;52.472;13.380;2023-03-23T09:06:07;13.75;84.71
69009;SHT31;56065;52.472;13.380;2023-03-23T09:08:34;14.22;83.37
69009;SHT31;56065;52.472;13.380;2023-03-23T09:11:06;14.22;82.49
69009;SHT31;56065;52.472;13.380;2023-03-23T09:13:32;13.86;82.82
69009;SHT31;56065;52.472;13.380;2023-03-23T09:15:58;13.95;82.82
69009;SHT31;56065;52.472;13.380;2023-03-23T09:18:23;13.55;83.92
69009;SHT31;56065;52.472;13.380;2023-03-23T09:20:50;13.58;84.24
69009;SHT31;56065;52.472;13.380;2023-03-23T09:23:16;13.65;84.00
69009;SHT31;56065;52.472;13.380;2023-03-23T09:25:41;13.68;84.24
69009;SHT31;56065;52.472;13.380;2023-03-23T09:28:07;13.86;83.62
69009;SHT31;56065;52.472;13.380;2023-03-23T09:30:33;13.87;83.97
69009;SHT31;56065;52.472;13.380;2023-03-23T09:33:01;14.27;83.16
69009;SHT31;56065;52.472;13.380;2023-03-23T09:35:27;14.70;81.88
69009;SHT31;56065;52.472;13.380;2023-03-23T09:37:53;14.95;81.31
69009;SHT31;56065;52.472;13.380;2023-03-23T09:40:23;15.53;80.25
69009;SHT31;56065;52.472;13.380;2023-03-23T09:50:27;16.96;73.70
69009;SHT31;56065;52.472;13.380;2023-03-23T09:53:00;16.13;75.42
69009;SHT31;56065;52.472;13.380;2023-03-23T09:55:27;16.05;76.47
69009;SHT31;56065;52.472;13.380;2023-03-23T09:58:14;16.14;75.33
69009;SHT31;56065;52.472;13.380;2023-03-23T10:03:30;15.35;76.96
69009;SHT31;56065;52.472;13.380;2023-03-23T10:05:57;15.04;77.12
69009;SHT31;56065;52.472;13.380;2023-03-23T10:08:27;15.02;77.05
69009;SHT31;56065;52.472;13.380;2023-03-23T10:11:13;14.77;78.24
69009;SHT31;56065;52.472;13.380;2023-03-23T10:16:17;14.64;78.64
69009;SHT31;56065;52.472;13.380;2023-03-23T10:21:28;14.44;79.12
69009;SHT31;56065;52.472;13.380;2023-03-23T10:24:04;14.48;78.73
69009;SHT31;56065;52.472;13.380;2023-03-23T10:29:18;15.19;77.28
69009;SHT31;56065;52.472;13.380;2023-03-23T10:31:58;15.12;76.58
69009;SHT31;56065;52.472;13.380;2023-03-23T10:34:44;15.28;76.33
69009;SHT31;56065;52.472;13.380;2023-03-23T10:42:10;16.07;74.55
69009;SHT31;56065;52.472;13.380;2023-03-23T10:44:35;15.77;74.77
69009;SHT31;56065;52.472;13.380;2023-03-23T10:47:06;15.70;74.78
69009;SHT31;56065;52.472;13.380;2023-03-23T10:49:43;15.69;75.09
69009;SHT31;56065;52.472;13.380;2023-03-23T10:52:38;15.70;74.78
69009;SHT31;56065;52.472;13.380;2023-03-23T10:55:11;15.74;74.42
69009;SHT31;56065;52.472;13.380;2023-03-23T10:57:41;15.55;74.40
69009;SHT31;56065;52.472;13.380;2023-03-23T11:00:15;15.40;75.29
69009;SHT31;56065;52.472;13.380;2023-03-23T11:02:56;15.45;74.49
69009;SHT31;56065;52.472;13.380;2023-03-23T11:05:25;15.46;74.94
69009;SHT31;56065;52.472;13.380;2023-03-23T11:07:56;15.50;74.42
69009;SHT31;56065;52.472;13.380;2023-03-23T11:10:25;15.59;74.34
69009;SHT31;56065;52.472;13.380;2023-03-23T11:12:51;15.90;73.66
69009;SHT31;56065;52.472;13.380;2023-03-23T11:15:31;15.83;73.40
69009;SHT31;56065;52.472;13.380;2023-03-23T11:18:00;15.82;73.53
69009;SHT31;56065;52.472;13.380;2023-03-23T11:20:27;15.82;73.63
69009;SHT31;56065;52.472;13.380;2023-03-23T11:22:54;16.00;73.24
69009;SHT31;56065;52.472;13.380;2023-03-23T11:25:20;16.01;72.85
69009;SHT31;56065;52.472;13.380;2023-03-23T11:27:46;15.74;73.26
69009;SHT31;56065;52.472;13.380;2023-03-23T11:30:27;16.08;73.22
69009;SHT31;56065;52.472;13.380;2023-03-23T11:32:55;16.21;72.59
69009;SHT31;56065;52.472;13.380;2023-03-23T11:35:27;16.51;71.50
69009;SHT31;56065;52.472;13.380;2023-03-23T11:37:55;16.31;71.25
69009;SHT31;56065;52.472;13.380;2023-03-23T11:40:31;16.56;70.72
69009;SHT31;56065;52.472;13.380;2023-03-23T11:43:13;16.47;71.00
69009;SHT31;56065;52.472;13.380;2023-03-23T11:45:47;16.65;70.82
69009;SHT31;56065;52.472;13.380;2023-03-23T11:53:55;16.90;69.89
69009;SHT31;56065;52.472;13.380;2023-03-23T11:56:25;16.82;69.33
69009;SHT31;56065;52.472;13.380;2023-03-23T11:58:56;16.71;70.03
69009;SHT31;56065;52.472;13.380;2023-03-23T12:01:48;17.19;69.73
69009;SHT31;56065;52.472;13.380;2023-03-23T12:07:14;17.23;68.71
69009;SHT31;56065;52.472;13.380;2023-03-23T12:13:26;17.45;68.02
69009;SHT31;56065;52.472;13.380;2023-03-23T12:15:27;17.31;67.67
69009;SHT31;56065;52.472;13.380;2023-03-23T12:23:57;17.33;67.28
69009;SHT31;56065;52.472;13.380;2023-03-23T12:26:30;17.28;68.00
69009;SHT31;56065;52.472;13.380;2023-03-23T12:45:15;16.66;68.98
69009;SHT31;56065;52.472;13.380;2023-03-23T12:47:57;16.86;68.08
69009;SHT31;56065;52.472;13.380;2023-03-23T12:50:47;17.02;67.46
69009;SHT31;56065;52.472;13.380;2023-03-23T12:53:33;16.77;68.02
69009;SHT31;56065;52.472;13.380;2023-03-23T12:58:41;17.13;66.67
69009;SHT31;56065;52.472;13.380;2023-03-23T13:01:12;17.71;66.06
69009;SHT31;56065;52.472;13.380;2023-03-23T13:03:52;17.98;65.08
69009;SHT31;56065;52.472;13.380;2023-03-23T13:06:23;18.40;64.89
69009;SHT31;56065;52.472;13.380;2023-03-23T13:11:46;19.46;62.22
69009;SHT31;56065;52.472;13.380;2023-03-23T13:14:45;19.35;62.35
69009;SHT31;56065;52.472;13.380;2023-03-23T13:20:26;18.98;61.73
69009;SHT31;56065;52.472;13.380;2023-03-23T13:23:13;19.25;61.70
69009;SHT31;56065;52.472;13.380;2023-03-23T13:26:06;19.85;60.86
69009;SHT31;56065;52.472;13.380;2023-03-23T13:31:32;19.22;61.02
69009;SHT31;56065;52.472;13.380;2023-03-23T13:34:04;19.58;61.21
69009;SHT31;56065;52.472;13.380;2023-03-23T13:36:36;19.73;60.59
69009;SHT31;56065;52.472;13.380;2023-03-23T13:39:04;19.67;59.40
69009;SHT31;56065;52.472;13.380;2023-03-23T13:41:33;19.83;58.79
69009;SHT31;56065;52.472;13.380;2023-03-23T13:44:16;20.20;59.03
69009;SHT31;56065;52.472;13.380;2023-03-23T13:46:54;19.46;57.87
69009;SHT31;56065;52.472;13.380;2023-03-23T13:49:21;19.42;58.18
69009;SHT31;56065;52.472;13.380;2023-03-23T13:52:01;19.55;58.19
69009;SHT31;56065;52.472;13.380;2023-03-23T13:54:42;19.12;58.58
69009;SHT31;56065;52.472;13.380;2023-03-23T13:57:24;19.07;59.03
69009;SHT31;56065;52.472;13.380;2023-03-23T13:59:57;18.90;59.23
69009;SHT31;56065;52.472;13.380;2023-03-23T14:08:00;19.45;58.09
69009;SHT31;56065;52.472;13.380;2023-03-23T14:13:04;19.87;56.41
69009;SHT31;56065;52.472;13.380;2023-03-23T14:15:37;19.67;56.99
69009;SHT31;56065;52.472;13.380;2023-03-23T14:18:04;19.22;57.21
69009;SHT31;56065;52.472;13.380;2023-03-23T14:20:32;18.86;58.22
69009;SHT31;56065;52.472;13.380;2023-03-23T14:22:59;18.60;59.38
69009;SHT31;56065;52.472;13.380;2023-03-23T14:25:29;18.46;59.46
69009;SHT31;56065;52.472;13.380;2023-03-23T14:27:55;18.22;60.06
69009;SHT31;56065;52.472;13.380;2023-03-23T14:30:22;17.88;60.79
69009;SHT31;56065;52.472;13.380;2023-03-23T14:32:51;17.58;61.73
69009;SHT31;56065;52.472;13.380;2023-03-23T14:37:46;17.20;62.97
69009;SHT31;56065;52.472;13.380;2023-03-23T14:40:15;17.17;63.34
69009;SHT31;56065;52.472;13.380;2023-03-23T14:42:41;17.20;63.32
69009;SHT31;56065;52.472;13.380;2023-03-23T14:45:15;17.38;63.26
69009;SHT31;56065;52.472;13.380;2023-03-23T14:47:51;17.12;63.91
69009;SHT31;56065;52.472;13.380;2023-03-23T14:50:27;17.00;65.65
69009;SHT31;56065;52.472;13.380;2023-03-23T14:53:12;16.96;66.03
69009;SHT31;56065;52.472;13.380;2023-03-23T14:55:42;16.86;66.33
69009;SHT31;56065;52.472;13.380;2023-03-23T14:58:11;16.62;66.77
69009;SHT31;56065;52.472;13.380;2023-03-23T15:00:45;16.80;67.08
69009;SHT31;56065;52.472;13.380;2023-03-23T15:03:15;17.61;66.22
69009;SHT31;56065;52.472;13.380;2023-03-23T15:05:44;18.13;63.33
69009;SHT31;56065;52.472;13.380;2023-03-23T15:08:19;18.09;63.04
69009;SHT31;56065;52.472;13.380;2023-03-23T15:13:27;17.88;63.96
69009;SHT31;56065;52.472;13.380;2023-03-23T15:16:01;18.15;63.03
69009;SHT31;56065;52.472;13.380;2023-03-23T15:18:35;18.25;62.46
69009;SHT31;56065;52.472;13.380;2023-03-23T15:21:19;18.81;62.39
69009;SHT31;56065;52.472;13.380;2023-03-23T15:23:45;19.49;61.15
69009;SHT31;56065;52.472;13.380;2023-03-23T15:26:33;19.34;60.14
69009;SHT31;56065;52.472;13.380;2023-03-23T15:29:13;19.19;60.17
69009;SHT31;56065;52.472;13.380;2023-03-23T15:31:54;18.83;60.54
69009;SHT31;56065;52.472;13.380;2023-03-23T15:34:33;19.05;59.69
69009;SHT31;56065;52.472;13.380;2023-03-23T15:37:06;19.12;58.81
69009;SHT31;56065;52.472;13.380;2023-03-23T15:39:40;18.71;57.74
69009;SHT31;56065;52.472;13.380;2023-03-23T15:42:05;18.73;57.62
69009;SHT31;56065;52.472;13.380;2023-03-23T15:44:33;18.78;58.30
69009;SHT31;56065;52.472;13.380;2023-03-23T15:47:12;18.53;58.25
69009;SHT31;56065;52.472;13.380;2023-03-23T15:49:38;18.22;58.65
69009;SHT31;56065;52.472;13.380;2023-03-23T15:52:04;18.08;58.94
69009;SHT31;56065;52.472;13.380;2023-03-23T15:54:30;17.85;59.29
69009;SHT31;56065;52.472;13.380;2023-03-23T15:56:57;18.08;59.30
69009;SHT31;56065;52.472;13.380;2023-03-23T15:59:23;18.02;59.20
69009;SHT31;56065;52.472;13.380;2023-03-23T16:01:48;17.75;59.59
69009;SHT31;56065;52.472;13.380;2023-03-23T16:04:16;17.58;59.53
69009;SHT31;56065;52.472;13.380;2023-03-23T16:06:42;17.38;59.53
69009;SHT31;56065;52.472;13.380;2023-03-23T16:09:17;17.43;59.87
69009;SHT31;56065;52.472;13.380;2023-03-23T16:11:43;17.37;59.84
69009;SHT31;56065;52.472;13.380;2023-03-23T16:14:09;17.28;59.66
69009;SHT31;56065;52.472;13.380;2023-03-23T16:16:43;17.19;59.98
69009;SHT31;56065;52.472;13.380;2023-03-23T16:19:11;17.24;60.14
69009;SHT31;56065;52.472;13.380;2023-03-23T16:21:37;17.20;60.32
69009;SHT31;56065;52.472;13.380;2023-03-23T16:24:02;17.03;60.26
69009;SHT31;56065;52.472;13.380;2023-03-23T16:26:28;17.05;60.45
69009;SHT31;56065;52.472;13.380;2023-03-23T16:28:53;17.00;60.62
69009;SHT31;56065;52.472;13.380;2023-03-23T16:31:19;17.02;60.45
69009;SHT31;56065;52.472;13.380;2023-03-23T16:33:44;16.89;60.65
69009;SHT31;56065;52.472;13.380;2023-03-23T16:36:12;16.87;61.14
69009;SHT31;56065;52.472;13.380;2023-03-23T16:38:38;16.87;61.03
69009;SHT31;56065;52.472;13.380;2023-03-23T16:41:03;17.02;60.97
69009;SHT31;56065;52.472;13.380;2023-03-23T16:43:29;16.93;61.30
69009;SHT31;56065;52.472;13.380;2023-03-23T16:45:55;16.92;61.48
69009;SHT31;56065;52.472;13.380;2023-03-23T16:48:21;16.95;61.62
69009;SHT31;56065;52.472;13.380;2023-03-23T16:50:47;17.07;61.96
69009;SHT31;56065;52.472;13.380;2023-03-23T16:53:13;16.97;61.94
69009;SHT31;56065;52.472;13.380;2023-03-23T16:55:38;17.13;61.64
69009;SHT31;56065;52.472;13.380;2023-03-23T16:58:05;17.22;63.32
69009;SHT31;56065;52.472;13.380;2023-03-23T17:00:30;17.33;65.46
69009;SHT31;56065;52.472;13.380;2023-03-23T17:02:56;17.47;66.75
69009;SHT31;56065;52.472;13.380;2023-03-23T17:05:27;17.45;66.41
69009;SHT31;56065;52.472;13.380;2023-03-23T17:07:54;17.38;65.88